Time,TemperatureF,DewpointF,PressureIn,WindDirection,WindDirectionDegrees,WindSpeedMPH,WindSpeedGustMPH,Humidity,HourlyPrecipIn,Conditions,Clouds,dailyrainin,SoftwareType,DateUTC
2013-01-18 00:04:00,32.3,30.0,30.30,NW,321,9.0,15.0,91,0.00,,,0.00,weatherlink.com 1.10,2013-01-18 05:04:00,
2013-01-18 00:19:00,32.1,29.0,30.32,NW,316,13.0,19.0,89,0.00,,,0.00,weatherlink.com 1.10,2013-01-18 05:19:00,
2013-01-18 00:34:00,32.0,29.0,30.33,NE,56,8.0,21.0,89,0.00,,,0.00,weatherlink.com 1.10,2013-01-18 05:34:00,
2013-01-18 00:49:00,31.9,29.0,30.34,North,11,7.0,16.0,89,0.00,,,0.00,weatherlink.com 1.10,2013-01-18 05:49:00,
2013-01-18 01:04:00,31.7,29.0,30.34,NNW,338,11.0,16.0,88,0.00,,,0.00,weatherlink.com 1.10,2013-01-18 06:04:00,
2013-01-18 01:19:00,31.6,28.0,30.35,NW,321,10.0,14.0,87,0.00,,,0.00,weatherlink.com 1.10,2013-01-18 06:19:00,
2013-01-18 01:34:00,31.5,28.0,30.35,NNE,14,11.0,15.0,88,0.00,,,0.00,weatherlink.com 1.10,2013-01-18 06:34:00,
2013-01-18 01:49:00,31.3,28.0,30.36,NNW,341,12.0,16.0,87,0.00,,,0.00,weatherlink.com 1.10,2013-01-18 06:49:00,
2013-01-18 02:04:00,31.2,28.0,30.37,NNE,33,7.0,16.0,87,0.00,,,0.00,weatherlink.com 1.10,2013-01-18 07:04:00,
2013-01-18 02:19:00,31.0,27.0,30.38,NNW,337,7.0,20.0,86,0.00,,,0.00,weatherlink.com 1.10,2013-01-18 07:19:00,
2013-01-18 02:34:00,30.9,27.0,30.39,NNW,341,8.0,21.0,86,0.00,,,0.00,weatherlink.com 1.10,2013-01-18 07:34:00,
2013-01-18 02:49:00,30.9,27.0,30.39,NNW,347,9.0,17.0,86,0.00,,,0.00,weatherlink.com 1.10,2013-01-18 07:49:00,
2013-01-18 03:04:00,30.9,28.0,30.39,NNW,336,10.0,19.0,87,0.00,,,0.00,weatherlink.com 1.10,2013-01-18 08:04:00,
2013-01-18 03:19:00,30.8,27.0,30.39,NNW,335,12.0,18.0,86,0.00,,,0.00,weatherlink.com 1.10,2013-01-18 08:19:00,
2013-01-18 03:34:00,30.6,27.0,30.39,NNW,332,10.0,16.0,86,0.00,,,0.00,weatherlink.com 1.10,2013-01-18 08:34:00,
2013-01-18 03:49:00,30.4,27.0,30.40,North,349,19.0,19.0,86,0.00,,,0.00,weatherlink.com 1.10,2013-01-18 08:49:00,
2013-01-18 04:04:00,30.3,27.0,30.39,NNW,342,15.0,20.0,86,0.00,,,0.00,weatherlink.com 1.10,2013-01-18 09:04:00,
2013-01-18 04:19:00,30.1,26.0,30.40,NNW,339,11.0,20.0,86,0.00,,,0.00,weatherlink.com 1.10,2013-01-18 09:19:00,
2013-01-18 04:34:00,30.1,27.0,30.40,NNW,348,11.0,18.0,87,0.00,,,0.00,weatherlink.com 1.10,2013-01-18 09:34:00,
2013-01-18 04:50:00,30.0,26.0,30.40,North,350,9.0,22.0,86,0.00,,,0.00,weatherlink.com 1.10,2013-01-18 09:50:00,
2013-01-18 05:05:00,29.9,26.0,30.40,NW,323,11.0,17.0,86,0.00,,,0.00,weatherlink.com 1.10,2013-01-18 10:05:00,
2013-01-18 05:20:00,29.8,26.0,30.40,NNW,328,13.0,17.0,86,0.00,,,0.00,weatherlink.com 1.10,2013-01-18 10:20:00,
2013-01-18 05:35:00,29.7,26.0,30.40,NW,315,6.0,19.0,87,0.00,,,0.00,weatherlink.com 1.10,2013-01-18 10:35:00,
2013-01-18 05:50:00,29.6,26.0,30.41,NW,311,13.0,20.0,86,0.00,,,0.00,weatherlink.com 1.10,2013-01-18 10:50:00,
2013-01-18 06:05:00,29.6,26.0,30.42,NNW,343,8.0,18.0,85,0.00,,,0.00,weatherlink.com 1.10,2013-01-18 11:05:00,
2013-01-18 06:20:00,29.5,26.0,30.42,NNW,342,8.0,18.0,86,0.00,,,0.00,weatherlink.com 1.10,2013-01-18 11:20:00,
2013-01-18 06:35:00,29.4,26.0,30.43,NNW,337,10.0,21.0,86,0.00,,,0.00,weatherlink.com 1.10,2013-01-18 11:35:00,
2013-01-18 06:50:00,29.4,26.0,30.43,NNW,342,13.0,18.0,87,0.00,,,0.00,weatherlink.com 1.10,2013-01-18 11:50:00,
2013-01-18 07:05:00,29.4,26.0,30.44,NNW,338,11.0,17.0,88,0.00,,,0.00,weatherlink.com 1.10,2013-01-18 12:05:00,
2013-01-18 07:20:00,29.4,26.0,30.45,NNW,328,9.0,19.0,87,0.00,,,0.00,weatherlink.com 1.10,2013-01-18 12:20:00,
2013-01-18 07:35:00,29.4,26.0,30.46,NNW,332,6.0,17.0,87,0.00,,,0.00,weatherlink.com 1.10,2013-01-18 12:35:00,
2013-01-18 07:50:00,29.3,27.0,30.47,NNW,342,11.0,17.0,89,0.00,,,0.00,weatherlink.com 1.10,2013-01-18 12:50:00,
2013-01-18 08:05:00,29.4,26.0,30.48,NW,325,10.0,13.0,88,0.00,,,0.00,weatherlink.com 1.10,2013-01-18 13:05:00,
2013-01-18 08:20:00,29.5,26.0,30.50,NNW,347,14.0,17.0,88,0.00,,,0.00,weatherlink.com 1.10,2013-01-18 13:20:00,
2013-01-18 08:35:00,30.0,27.0,30.51,NNE,15,6.0,15.0,88,0.00,,,0.00,weatherlink.com 1.10,2013-01-18 13:35:00,
2013-01-18 08:50:00,30.4,27.0,30.52,NW,316,8.0,14.0,86,0.00,,,0.00,weatherlink.com 1.10,2013-01-18 13:50:00,
2013-01-18 09:05:00,30.8,27.0,30.54,NNW,342,6.0,14.0,85,0.00,,,0.00,weatherlink.com 1.10,2013-01-18 14:05:00,
2013-01-18 09:20:00,31.1,27.0,30.54,North,11,10.0,19.0,84,0.00,,,0.00,weatherlink.com 1.10,2013-01-18 14:20:00,
2013-01-18 09:35:00,31.6,27.0,30.55,NNW,346,9.0,18.0,83,0.00,,,0.00,weatherlink.com 1.10,2013-01-18 14:35:00,
2013-01-18 09:50:00,31.8,27.0,30.57,NNE,13,9.0,15.0,81,0.00,,,0.00,weatherlink.com 1.10,2013-01-18 14:50:00,
2013-01-18 10:05:00,32.2,26.0,30.58,NNE,13,10.0,20.0,79,0.00,,,0.00,weatherlink.com 1.10,2013-01-18 15:05:00,
2013-01-18 10:20:00,32.8,27.0,30.58,North,11,11.0,17.0,80,0.00,,,0.00,weatherlink.com 1.10,2013-01-18 15:20:00,
2013-01-18 10:35:00,33.1,27.0,30.59,North,358,10.0,17.0,78,0.00,,,0.00,weatherlink.com 1.10,2013-01-18 15:35:00,
2013-01-18 10:50:00,33.9,27.0,30.59,NNW,340,9.0,16.0,75,0.00,,,0.00,weatherlink.com 1.10,2013-01-18 15:50:00,
2013-01-18 11:06:00,34.4,27.0,30.58,NNW,345,5.0,14.0,73,0.00,,,0.00,weatherlink.com 1.10,2013-01-18 16:06:00,
2013-01-18 11:21:00,35.0,27.0,30.58,NNW,332,5.0,11.0,72,0.00,,,0.00,weatherlink.com 1.10,2013-01-18 16:21:00,
2013-01-18 11:36:00,35.7,27.0,30.57,North,8,2.0,10.0,70,0.00,,,0.00,weatherlink.com 1.10,2013-01-18 16:36:00,
2013-01-18 11:51:00,36.2,26.0,30.57,NNW,346,3.0,8.0,67,0.00,,,0.00,weatherlink.com 1.10,2013-01-18 16:51:00,
2013-01-18 12:06:00,37.6,27.0,30.56,NE,37,0.0,4.0,66,0.00,,,0.00,weatherlink.com 1.10,2013-01-18 17:06:00,
2013-01-18 12:21:00,37.9,26.0,30.55,NNE,15,2.0,8.0,62,0.00,,,0.00,weatherlink.com 1.10,2013-01-18 17:21:00,
2013-01-18 12:36:00,39.3,25.0,30.54,WNW,302,0.0,4.0,56,0.00,,,0.00,weatherlink.com 1.10,2013-01-18 17:36:00,
2013-01-18 12:51:00,39.7,23.0,30.54,WNW,283,0.0,8.0,51,0.00,,,0.00,weatherlink.com 1.10,2013-01-18 17:51:00,
2013-01-18 13:06:00,41.9,24.0,30.54,SSE,156,0.0,6.0,49,0.00,,,0.00,weatherlink.com 1.10,2013-01-18 18:06:00,
2013-01-18 13:21:00,41.4,22.0,30.54,NE,47,1.0,5.0,47,0.00,,,0.00,weatherlink.com 1.10,2013-01-18 18:21:00,
2013-01-18 13:36:00,42.7,20.0,30.53,NNW,331,1.0,7.0,41,0.00,,,0.00,weatherlink.com 1.10,2013-01-18 18:36:00,
2013-01-18 13:51:00,42.6,22.0,30.52,North,354,3.0,10.0,44,0.00,,,0.00,weatherlink.com 1.10,2013-01-18 18:51:00,
2013-01-18 14:06:00,42.5,22.0,30.52,WNW,293,3.0,8.0,44,0.00,,,0.00,weatherlink.com 1.10,2013-01-18 19:06:00,
2013-01-18 14:21:00,44.0,22.0,30.52,SW,219,0.0,6.0,42,0.00,,,0.00,weatherlink.com 1.10,2013-01-18 19:21:00,
2013-01-18 14:36:00,46.6,22.0,30.52,NNW,333,2.0,4.0,38,0.00,,,0.00,weatherlink.com 1.10,2013-01-18 19:36:00,
2013-01-18 14:51:00,46.0,23.0,30.52,NW,314,0.0,4.0,40,0.00,,,0.00,weatherlink.com 1.10,2013-01-18 19:51:00,
2013-01-18 15:06:00,45.4,21.0,30.51,North,349,0.0,5.0,38,0.00,,,0.00,weatherlink.com 1.10,2013-01-18 20:06:00,
2013-01-18 15:21:00,46.1,22.0,30.51,NE,55,0.0,4.0,39,0.00,,,0.00,weatherlink.com 1.10,2013-01-18 20:21:00,
2013-01-18 15:36:00,45.9,22.0,30.51,North,349,2.0,5.0,39,0.00,,,0.00,weatherlink.com 1.10,2013-01-18 20:36:00,
2013-01-18 15:51:00,46.1,22.0,30.51,NNW,341,2.0,6.0,39,0.00,,,0.00,weatherlink.com 1.10,2013-01-18 20:51:00,
2013-01-18 16:06:00,46.1,22.0,30.51,NNW,343,2.0,5.0,38,0.00,,,0.00,weatherlink.com 1.10,2013-01-18 21:06:00,
2013-01-18 16:21:00,45.9,23.0,30.51,NNW,330,3.0,6.0,40,0.00,,,0.00,weatherlink.com 1.10,2013-01-18 21:21:00,
2013-01-18 16:36:00,45.9,24.0,30.52,NW,312,4.0,4.0,42,0.00,,,0.00,weatherlink.com 1.10,2013-01-18 21:36:00,
2013-01-18 16:51:00,45.4,24.0,30.52,North,8,4.0,6.0,44,0.00,,,0.00,weatherlink.com 1.10,2013-01-18 21:51:00,
2013-01-18 17:06:00,45.1,25.0,30.52,NNW,330,1.0,4.0,46,0.00,,,0.00,weatherlink.com 1.10,2013-01-18 22:06:00,
2013-01-18 17:21:00,44.2,26.0,30.52,NNW,342,1.0,4.0,50,0.00,,,0.00,weatherlink.com 1.10,2013-01-18 22:21:00,
2013-01-18 17:36:00,43.1,29.0,30.52,NNE,20,0.0,1.0,59,0.00,,,0.00,weatherlink.com 1.10,2013-01-18 22:36:00,
2013-01-18 17:51:00,40.8,31.0,30.52,South,188,2.0,2.0,69,0.00,,,0.00,weatherlink.com 1.10,2013-01-18 22:51:00,
2013-01-18 18:06:00,38.3,31.0,30.53,SSW,207,0.0,1.0,74,0.00,,,0.00,weatherlink.com 1.10,2013-01-18 23:06:00,
2013-01-18 18:21:00,37.6,32.0,30.54,NNE,20,3.0,4.0,79,0.00,,,0.00,weatherlink.com 1.10,2013-01-18 23:21:00,
2013-01-18 18:36:00,37.6,31.0,30.54,North,351,0.0,2.0,76,0.00,,,0.00,weatherlink.com 1.10,2013-01-18 23:36:00,
2013-01-18 18:51:00,37.2,31.0,30.54,North,1,0.0,1.0,77,0.00,,,0.00,weatherlink.com 1.10,2013-01-18 23:51:00,
2013-01-18 19:06:00,35.5,31.0,30.55,NNE,30,1.0,1.0,84,0.00,,,0.00,weatherlink.com 1.10,2013-01-19 00:06:00,
2013-01-18 19:21:00,34.7,30.0,30.55,North,11,0.0,2.0,83,0.00,,,0.00,weatherlink.com 1.10,2013-01-19 00:21:00,
2013-01-18 19:36:00,33.4,30.0,30.55,SSW,195,0.0,1.0,87,0.00,,,0.00,weatherlink.com 1.10,2013-01-19 00:36:00,
2013-01-18 19:51:00,32.6,30.0,30.54,SW,226,0.0,1.0,89,0.00,,,0.00,weatherlink.com 1.10,2013-01-19 00:51:00,
2013-01-18 20:06:00,32.0,29.0,30.55,SSW,212,0.0,1.0,90,0.00,,,0.00,weatherlink.com 1.10,2013-01-19 01:06:00,
2013-01-18 20:21:00,31.3,29.0,30.54,SSE,153,1.0,4.0,90,0.00,,,0.00,weatherlink.com 1.10,2013-01-19 01:21:00,
2013-01-18 20:36:00,31.4,29.0,30.55,SSE,152,1.0,2.0,90,0.00,,,0.00,weatherlink.com 1.10,2013-01-19 01:36:00,
2013-01-18 20:51:00,31.2,28.0,30.54,SW,221,0.0,1.0,89,0.00,,,0.00,weatherlink.com 1.10,2013-01-19 01:51:00,
2013-01-18 21:06:00,30.2,28.0,30.55,SSE,165,2.0,3.0,91,0.00,,,0.00,weatherlink.com 1.10,2013-01-19 02:06:00,
2013-01-18 21:21:00,30.6,29.0,30.55,SSE,166,2.0,4.0,92,0.00,,,0.00,weatherlink.com 1.10,2013-01-19 02:21:00,
2013-01-18 21:36:00,30.3,28.0,30.55,SSE,148,0.0,2.0,91,0.00,,,0.00,weatherlink.com 1.10,2013-01-19 02:36:00,
2013-01-18 21:51:00,29.7,28.0,30.55,SE,136,1.0,2.0,92,0.00,,,0.00,weatherlink.com 1.10,2013-01-19 02:51:00,
2013-01-18 22:06:00,29.3,28.0,30.55,ENE,72,0.0,1.0,93,0.00,,,0.00,weatherlink.com 1.10,2013-01-19 03:06:00,
2013-01-18 22:21:00,29.8,28.0,30.55,NE,40,0.0,2.0,94,0.00,,,0.00,weatherlink.com 1.10,2013-01-19 03:21:00,
2013-01-18 22:36:00,29.3,28.0,30.55,SSW,212,0.0,2.0,94,0.00,,,0.00,weatherlink.com 1.10,2013-01-19 03:36:00,
2013-01-18 22:51:00,28.9,27.0,30.54,South,191,3.0,4.0,94,0.00,,,0.00,weatherlink.com 1.10,2013-01-19 03:51:00,
2013-01-18 23:06:00,28.6,27.0,30.54,South,169,0.0,2.0,94,0.00,,,0.00,weatherlink.com 1.10,2013-01-19 04:06:00,
2013-01-18 23:21:00,28.9,27.0,30.54,ENE,74,0.0,1.0,94,0.00,,,0.00,weatherlink.com 1.10,2013-01-19 04:21:00,
2013-01-18 23:36:00,28.5,27.0,30.54,SW,224,0.0,1.0,95,0.00,,,0.00,weatherlink.com 1.10,2013-01-19 04:36:00,
2013-01-18 23:52:00,28.5,27.0,30.53,SW,232,0.0,1.0,95,0.00,,,0.00,weatherlink.com 1.10,2013-01-19 04:52:00,